createdAt,value
2022-10-08T00:00:09.434Z,47.70
2022-10-08T00:02:37.888Z,47.80
2022-10-08T00:05:07.702Z,47.70
2022-10-08T00:07:37.632Z,47.70
2022-10-08T00:10:08.146Z,47.70
2022-10-08T00:12:36.606Z,47.60
2022-10-08T00:15:06.001Z,47.60
2022-10-08T00:17:34.888Z,47.60
2022-10-08T00:20:03.402Z,47.60
2022-10-08T00:22:31.885Z,47.50
2022-10-08T00:25:01.850Z,47.40
2022-10-08T00:27:30.485Z,47.30
2022-10-08T00:29:59.025Z,47.40
2022-10-08T00:32:27.462Z,47.50
2022-10-08T00:34:55.905Z,47.60
2022-10-08T00:37:25.685Z,47.70
2022-10-08T00:39:54.116Z,47.80
2022-10-08T00:42:24.809Z,47.70
2022-10-08T00:44:59.799Z,47.60
2022-10-08T00:47:42.949Z,47.50
2022-10-08T00:50:18.902Z,47.50
2022-10-08T00:52:51.688Z,47.40
2022-10-08T00:55:24.250Z,47.10
2022-10-08T00:57:54.133Z,47.20
2022-10-08T01:00:26.191Z,47.20
2022-10-08T01:02:55.558Z,47.10
2022-10-08T01:05:40.158Z,47.30
2022-10-08T01:08:20.523Z,47.50
2022-10-08T01:11:01.799Z,47.60
2022-10-08T01:13:44.746Z,48.00
2022-10-08T01:16:30.190Z,48.10
2022-10-08T01:19:16.841Z,48.40
2022-10-08T01:22:05.163Z,48.40
2022-10-08T01:25:04.302Z,48.50
2022-10-08T01:27:42.055Z,48.30
2022-10-08T01:30:16.368Z,47.90
2022-10-08T01:32:52.357Z,47.80
2022-10-08T01:35:27.637Z,47.80
2022-10-08T01:38:01.069Z,47.90
2022-10-08T01:40:35.761Z,48.10
2022-10-08T01:43:11.549Z,48.30
2022-10-08T01:45:49.440Z,48.40
2022-10-08T01:48:26.198Z,48.60
2022-10-08T01:51:01.921Z,49.00
2022-10-08T01:53:35.594Z,48.90
2022-10-08T01:56:08.908Z,49.10
2022-10-08T01:58:50.118Z,49.30
2022-10-08T02:01:28.833Z,49.50
2022-10-08T02:04:14.951Z,49.70
2022-10-08T02:06:52.043Z,49.80
2022-10-08T02:09:21.032Z,49.90
2022-10-08T02:11:49.498Z,50.00
2022-10-08T02:14:21.776Z,50.40
2022-10-08T02:16:59.324Z,50.70
2022-10-08T02:19:43.560Z,50.80
2022-10-08T02:22:17.650Z,50.80
2022-10-08T02:24:52.716Z,50.60
2022-10-08T02:27:30.683Z,50.30
2022-10-08T02:30:10.800Z,49.90
2022-10-08T02:32:50.427Z,49.90
2022-10-08T02:35:25.540Z,49.80
2022-10-08T02:38:01.229Z,49.90
2022-10-08T02:40:33.915Z,49.90
2022-10-08T02:43:11.121Z,49.70
2022-10-08T02:45:47.324Z,49.70
2022-10-08T02:48:27.372Z,49.60
2022-10-08T02:51:01.085Z,49.40
2022-10-08T02:53:30.857Z,49.10
2022-10-08T02:56:12.348Z,48.80
2022-10-08T02:58:41.593Z,48.80
2022-10-08T03:01:26.551Z,48.70
2022-10-08T03:04:03.743Z,48.60
2022-10-08T03:06:34.446Z,48.40
2022-10-08T03:09:06.887Z,48.20
2022-10-08T03:11:36.608Z,48.10
2022-10-08T03:14:10.278Z,48.10
2022-10-08T03:16:44.045Z,48.10
2022-10-08T03:19:16.047Z,48.20
2022-10-08T03:21:48.106Z,48.20
2022-10-08T03:24:17.594Z,48.20
2022-10-08T03:26:46.040Z,48.30
2022-10-08T03:29:14.827Z,48.80
2022-10-08T03:31:44.665Z,49.30
2022-10-08T03:34:13.151Z,49.60
2022-10-08T03:36:41.704Z,50.10
2022-10-08T03:39:11.883Z,50.60
2022-10-08T03:41:40.459Z,51.00
2022-10-08T03:44:10.866Z,51.30
2022-10-08T03:46:39.350Z,51.20
2022-10-08T03:49:09.281Z,51.30
2022-10-08T03:51:37.703Z,51.70
2022-10-08T03:54:06.456Z,51.90
2022-10-08T03:56:34.910Z,51.70
2022-10-08T03:59:04.192Z,51.60
2022-10-08T04:01:32.690Z,50.80
2022-10-08T04:04:01.154Z,50.50
2022-10-08T04:06:31.154Z,50.00
2022-10-08T04:09:01.235Z,50.50
2022-10-08T04:11:30.769Z,49.60
2022-10-08T04:13:59.221Z,49.30
2022-10-08T04:16:27.828Z,49.30
2022-10-08T04:18:56.455Z,49.40
2022-10-08T04:21:24.891Z,49.40
2022-10-08T04:23:54.731Z,49.50
2022-10-08T04:26:23.192Z,49.70
2022-10-08T04:28:51.675Z,49.80
2022-10-08T04:31:23.368Z,49.90
2022-10-08T04:33:53.479Z,49.90
2022-10-08T04:36:24.745Z,49.90
2022-10-08T04:38:55.012Z,49.90
2022-10-08T04:41:25.776Z,50.00
2022-10-08T04:43:56.284Z,50.10
2022-10-08T04:46:25.018Z,50.00
2022-10-08T04:48:56.116Z,50.50
2022-10-08T04:51:26.823Z,50.70
2022-10-08T04:53:58.219Z,50.90
2022-10-08T04:56:29.852Z,50.80
2022-10-08T04:59:00.798Z,50.80
2022-10-08T05:01:30.763Z,50.50
2022-10-08T05:04:00.853Z,50.40
2022-10-08T05:06:32.476Z,50.40
2022-10-08T05:09:04.186Z,50.10
2022-10-08T05:11:34.054Z,49.90
2022-10-08T05:14:02.872Z,49.80
2022-10-08T05:16:31.400Z,49.70
2022-10-08T05:19:00.724Z,49.60
2022-10-08T05:21:31.897Z,49.60
2022-10-08T05:24:05.401Z,49.50
2022-10-08T05:26:56.925Z,49.50
2022-10-08T05:29:25.018Z,49.50
2022-10-08T05:31:53.432Z,49.50
2022-10-08T05:34:22.244Z,49.50
2022-10-08T05:36:50.910Z,49.60
2022-10-08T05:39:20.783Z,49.60
2022-10-08T05:41:49.327Z,49.40
2022-10-08T05:44:17.815Z,49.50
2022-10-08T05:46:46.333Z,49.90
2022-10-08T05:49:21.405Z,49.90
2022-10-08T05:51:51.093Z,49.90
2022-10-08T05:54:21.970Z,50.00
2022-10-08T05:56:50.676Z,50.20
2022-10-08T05:59:22.870Z,50.20
2022-10-08T06:01:53.343Z,49.90
2022-10-08T06:04:22.299Z,49.90
2022-10-08T06:06:51.135Z,49.90
2022-10-08T06:09:22.254Z,49.90
2022-10-08T06:11:51.294Z,49.60
2022-10-08T06:14:21.156Z,49.20
2022-10-08T06:16:49.849Z,49.20
2022-10-08T06:19:18.318Z,49.20
2022-10-08T06:21:46.815Z,48.90
2022-10-08T06:24:15.644Z,48.80
2022-10-08T06:26:46.029Z,49.00
2022-10-08T06:29:17.612Z,49.00
2022-10-08T06:31:46.993Z,49.10
2022-10-08T06:34:15.997Z,48.90
2022-10-08T06:36:44.437Z,48.70
2022-10-08T06:39:15.654Z,48.60
2022-10-08T06:41:45.876Z,48.70
2022-10-08T06:44:19.158Z,48.80
2022-10-08T06:46:47.942Z,48.70
2022-10-08T06:49:16.715Z,48.30
2022-10-08T06:51:45.132Z,48.20
2022-10-08T06:54:13.612Z,48.10
2022-10-08T06:56:42.081Z,48.10
2022-10-08T06:59:12.147Z,48.00
2022-10-08T07:01:40.734Z,48.10
2022-10-08T07:04:12.201Z,47.60
2022-10-08T07:06:40.705Z,47.70
2022-10-08T07:09:10.434Z,47.50
2022-10-08T07:11:40.241Z,47.00
2022-10-08T07:14:08.933Z,47.10
2022-10-08T07:16:38.942Z,46.80
2022-10-08T07:19:07.540Z,46.70
2022-10-08T07:21:36.033Z,46.60
2022-10-08T07:24:05.408Z,46.20
2022-10-08T07:26:35.876Z,45.40
2022-10-08T07:29:08.690Z,45.50
2022-10-08T07:31:40.498Z,45.60
2022-10-08T07:34:12.798Z,45.20
2022-10-08T07:36:41.975Z,45.60
2022-10-08T07:39:15.448Z,46.10
2022-10-08T07:41:44.141Z,46.30
2022-10-08T07:44:13.788Z,46.20
2022-10-08T07:46:47.745Z,45.60
2022-10-08T07:49:17.302Z,45.30
2022-10-08T07:51:46.564Z,45.20
2022-10-08T07:54:18.512Z,45.10
2022-10-08T07:56:47.397Z,44.90
2022-10-08T07:59:16.342Z,44.80
2022-10-08T08:01:46.690Z,45.10
2022-10-08T08:04:15.769Z,45.80
2022-10-08T08:06:47.580Z,45.00
2022-10-08T08:09:16.275Z,44.30
2022-10-08T08:11:46.109Z,43.60
2022-10-08T08:14:14.571Z,42.50
2022-10-08T08:16:43.112Z,40.90
2022-10-08T08:19:13.005Z,39.90
2022-10-08T08:21:41.503Z,39.70
2022-10-08T08:24:13.244Z,39.50
2022-10-08T08:26:44.429Z,39.80
2022-10-08T08:29:15.301Z,39.00
2022-10-08T08:31:47.049Z,39.60
2022-10-08T08:34:19.398Z,40.50
2022-10-08T08:36:51.211Z,40.20
2022-10-08T08:39:23.015Z,39.60
2022-10-08T08:42:06.680Z,39.80
2022-10-08T08:44:39.409Z,40.00
2022-10-08T08:47:17.312Z,38.80
2022-10-08T08:49:53.049Z,38.00
2022-10-08T08:52:26.331Z,37.80
2022-10-08T08:54:55.741Z,37.30
2022-10-08T08:57:38.326Z,37.70
2022-10-08T09:00:16.136Z,37.30
2022-10-08T09:02:56.935Z,36.00
2022-10-08T09:05:32.216Z,35.40
2022-10-08T09:08:08.961Z,34.80
2022-10-08T09:10:44.243Z,34.90
2022-10-08T09:13:20.532Z,35.60
2022-10-08T09:15:49.225Z,35.70
2022-10-08T09:18:18.330Z,36.30
2022-10-08T09:20:48.547Z,36.40
2022-10-08T09:23:20.410Z,36.40
2022-10-08T09:25:55.792Z,36.10
2022-10-08T09:28:46.370Z,34.80
2022-10-08T09:31:33.475Z,35.50
2022-10-08T09:34:07.609Z,35.70
2022-10-08T09:36:43.027Z,33.20
2022-10-08T09:39:21.654Z,30.90
2022-10-08T09:42:15.209Z,30.00
2022-10-08T09:44:46.468Z,28.90
2022-10-08T09:47:18.121Z,28.40
2022-10-08T09:49:50.043Z,29.70
2022-10-08T09:52:26.042Z,30.60
2022-10-08T09:55:02.969Z,30.70
2022-10-08T09:57:34.744Z,30.30
2022-10-08T10:00:07.082Z,30.10
2022-10-08T10:02:38.685Z,30.90
2022-10-08T10:05:23.033Z,31.40
2022-10-08T10:07:54.267Z,30.50
2022-10-08T10:10:29.050Z,31.30
2022-10-08T10:13:04.227Z,32.30
2022-10-08T10:15:42.048Z,32.70
2022-10-08T10:18:17.869Z,32.30
2022-10-08T10:20:51.996Z,32.90
2022-10-08T10:23:29.038Z,32.70
2022-10-08T10:26:06.731Z,32.50
2022-10-08T10:28:44.365Z,31.30
2022-10-08T10:31:20.246Z,28.50
2022-10-08T10:33:57.616Z,26.30
2022-10-08T10:36:33.293Z,25.30
2022-10-08T10:39:19.010Z,23.60
2022-10-08T10:41:54.940Z,23.10
2022-10-08T10:44:30.221Z,21.70
2022-10-08T10:47:02.762Z,21.80
2022-10-08T10:49:38.282Z,21.50
2022-10-08T10:52:34.513Z,21.30
2022-10-08T10:55:22.043Z,22.10
2022-10-08T10:58:21.436Z,22.00
2022-10-08T11:01:04.409Z,20.00
2022-10-08T11:03:45.314Z,19.80
2022-10-08T11:06:42.715Z,20.10
2022-10-08T11:09:22.202Z,20.70
2022-10-08T11:11:58.203Z,20.20
2022-10-08T11:14:44.907Z,21.10
2022-10-08T11:17:49.073Z,21.70
2022-10-08T11:20:38.125Z,22.70
2022-10-08T11:23:30.625Z,22.50
2022-10-08T11:26:20.778Z,23.00
2022-10-08T11:29:07.225Z,23.20
2022-10-08T11:31:44.254Z,23.90
2022-10-08T11:34:24.983Z,24.10
2022-10-08T11:37:08.301Z,24.60
2022-10-08T11:39:50.659Z,24.40
2022-10-08T11:42:26.371Z,22.70
2022-10-08T11:44:56.453Z,23.20
2022-10-08T11:47:50.994Z,20.80
2022-10-08T11:50:32.579Z,20.00
2022-10-08T11:53:18.878Z,18.50
2022-10-08T11:55:55.865Z,15.80
2022-10-08T11:58:30.485Z,16.20
2022-10-08T12:01:07.314Z,17.40
2022-10-08T12:03:40.247Z,17.50
2022-10-08T12:06:26.746Z,16.40
2022-10-08T12:08:58.823Z,16.20
2022-10-08T12:11:50.925Z,16.80
2022-10-08T12:14:53.456Z,16.70
2022-10-08T12:17:23.490Z,15.90
2022-10-08T12:20:21.431Z,14.80
2022-10-08T12:23:06.772Z,13.00
2022-10-08T12:25:44.306Z,12.20
2022-10-08T12:28:50.296Z,12.30
2022-10-08T12:31:40.066Z,12.20
2022-10-08T12:34:22.804Z,12.60
2022-10-08T12:37:06.794Z,12.90
2022-10-08T12:39:41.346Z,14.60
2022-10-08T12:42:21.113Z,14.70
2022-10-08T12:45:05.697Z,15.50
2022-10-08T12:47:47.467Z,15.80
2022-10-08T12:50:40.654Z,17.30
2022-10-08T12:53:14.941Z,16.30
2022-10-08T12:55:53.011Z,14.90
2022-10-08T12:58:27.159Z,14.10
2022-10-08T13:01:00.453Z,12.50
2022-10-08T13:03:29.461Z,12.40
2022-10-08T13:05:59.400Z,11.40
2022-10-08T13:08:33.273Z,9.40
2022-10-08T13:11:04.893Z,9.00
2022-10-08T13:13:49.014Z,8.70
2022-10-08T13:16:20.651Z,9.10
2022-10-08T13:18:53.513Z,9.50
2022-10-08T13:21:36.042Z,9.80
2022-10-08T13:24:33.679Z,11.20
2022-10-08T13:27:02.391Z,11.80
2022-10-08T13:29:37.236Z,10.80
2022-10-08T13:32:20.450Z,10.90
2022-10-08T13:34:52.306Z,10.60
2022-10-08T13:37:33.449Z,9.50
2022-10-08T13:40:04.812Z,8.80
2022-10-08T13:42:36.292Z,8.10
2022-10-08T13:45:15.668Z,8.20
2022-10-08T13:47:44.554Z,9.00
2022-10-08T13:50:13.777Z,10.00
2022-10-08T13:52:47.797Z,10.10
2022-10-08T13:55:27.213Z,10.30
2022-10-08T13:57:56.375Z,10.30
2022-10-08T14:00:25.776Z,10.30
2022-10-08T14:02:54.649Z,9.90
2022-10-08T14:05:24.851Z,6.90
2022-10-08T14:07:59.269Z,7.00
2022-10-08T14:10:28.268Z,6.00
2022-10-08T14:12:56.716Z,4.20
2022-10-08T14:15:25.724Z,4.90
2022-10-08T14:17:54.203Z,4.80
2022-10-08T14:20:23.067Z,4.00
2022-10-08T14:22:52.328Z,4.20
2022-10-08T14:25:28.507Z,4.70
2022-10-08T14:27:57.004Z,5.20
2022-10-08T14:30:25.548Z,5.60
2022-10-08T14:32:54.160Z,5.60
2022-10-08T14:35:22.838Z,4.60
2022-10-08T14:37:51.505Z,4.30
2022-10-08T14:40:23.512Z,4.00
2022-10-08T14:42:52.218Z,4.60
2022-10-08T14:45:20.994Z,3.70
2022-10-08T14:47:49.596Z,4.10
2022-10-08T14:50:18.215Z,3.60
2022-10-08T14:52:47.246Z,2.90
2022-10-08T14:55:16.030Z,2.40
2022-10-08T14:57:45.914Z,2.50
2022-10-08T15:00:15.608Z,2.30
2022-10-08T15:02:44.057Z,2.70
2022-10-08T15:05:12.463Z,3.00
2022-10-08T15:07:44.358Z,2.40
2022-10-08T15:10:13.040Z,3.20
2022-10-08T15:12:41.491Z,2.90
2022-10-08T15:15:13.069Z,3.20
2022-10-08T15:17:41.516Z,3.20
2022-10-08T15:20:10.990Z,3.50
2022-10-08T15:22:39.496Z,3.50
2022-10-08T15:25:09.270Z,4.00
2022-10-08T15:27:37.750Z,4.60
2022-10-08T15:30:07.458Z,4.50
2022-10-08T15:32:39.202Z,4.00
2022-10-08T15:35:08.943Z,4.90
2022-10-08T15:37:37.434Z,5.90
2022-10-08T15:40:07.507Z,5.70
2022-10-08T15:42:35.958Z,6.00
2022-10-08T15:45:04.634Z,7.10
2022-10-08T15:47:33.180Z,7.40
2022-10-08T15:50:03.415Z,9.60
2022-10-08T15:52:33.289Z,11.40
2022-10-08T15:55:03.076Z,12.80
2022-10-08T15:57:31.595Z,14.30
2022-10-08T16:00:00.232Z,15.50
2022-10-08T16:02:28.662Z,17.30
2022-10-08T16:04:57.427Z,18.70
2022-10-08T16:07:27.256Z,20.20
2022-10-08T16:09:55.668Z,21.40
2022-10-08T16:12:24.059Z,23.00
2022-10-08T16:14:52.719Z,24.50
2022-10-08T16:17:21.206Z,26.10
2022-10-08T16:19:49.625Z,27.10
2022-10-08T16:22:18.122Z,28.20
2022-10-08T16:24:47.916Z,29.20
2022-10-08T16:27:19.600Z,30.50
2022-10-08T16:29:48.907Z,31.20
2022-10-08T16:32:20.972Z,31.70
2022-10-08T16:34:53.601Z,32.00
2022-10-08T16:37:24.919Z,32.80
2022-10-08T16:39:56.894Z,34.10
2022-10-08T16:42:25.741Z,35.10
2022-10-08T16:44:54.179Z,36.10
2022-10-08T16:47:22.711Z,37.60
2022-10-08T16:49:51.270Z,38.90
2022-10-08T16:52:19.760Z,38.90
2022-10-08T16:54:54.558Z,39.00
2022-10-08T16:57:25.488Z,38.80
2022-10-08T16:59:54.173Z,39.30
2022-10-08T17:02:25.956Z,39.40
2022-10-08T17:04:55.630Z,39.30
2022-10-08T17:07:24.055Z,39.90
2022-10-08T17:09:53.747Z,40.50
2022-10-08T17:12:22.222Z,41.40
2022-10-08T17:14:52.012Z,42.70
2022-10-08T17:17:20.439Z,43.20
2022-10-08T17:19:48.931Z,43.20
2022-10-08T17:22:17.424Z,43.70
2022-10-08T17:24:46.021Z,45.10
2022-10-08T17:27:14.653Z,45.30
2022-10-08T17:29:43.311Z,45.80
2022-10-08T17:32:14.665Z,46.00
2022-10-08T17:34:43.134Z,45.90
2022-10-08T17:37:11.944Z,45.50
2022-10-08T17:39:40.434Z,45.20
2022-10-08T17:42:09.056Z,45.00
2022-10-08T17:44:37.552Z,45.10
2022-10-08T17:47:07.646Z,45.40
2022-10-08T17:49:37.732Z,45.50
2022-10-08T17:52:06.216Z,45.30
2022-10-08T17:54:34.855Z,45.40
2022-10-08T17:57:03.270Z,45.20
2022-10-08T17:59:31.718Z,45.00
2022-10-08T18:02:00.189Z,45.00
2022-10-08T18:04:28.707Z,44.90
2022-10-08T18:07:02.607Z,44.80
2022-10-08T18:09:31.874Z,44.50
2022-10-08T18:12:00.297Z,44.30
2022-10-08T18:14:28.848Z,44.10
2022-10-08T18:16:57.466Z,44.40
2022-10-08T18:19:25.959Z,44.60
2022-10-08T18:21:54.668Z,44.70
2022-10-08T18:24:24.788Z,45.10
2022-10-08T18:26:53.329Z,45.00
2022-10-08T18:29:22.039Z,45.40
2022-10-08T18:31:50.830Z,45.30
2022-10-08T18:34:20.726Z,45.30
2022-10-08T18:36:49.190Z,45.40
2022-10-08T18:39:23.661Z,45.60
2022-10-08T18:41:58.028Z,46.10
2022-10-08T18:44:27.828Z,46.40
2022-10-08T18:46:56.294Z,46.70
2022-10-08T18:49:30.197Z,46.60
2022-10-08T18:51:59.504Z,46.70
2022-10-08T18:54:28.238Z,46.80
2022-10-08T18:57:00.286Z,47.10
2022-10-08T18:59:30.829Z,47.20
2022-10-08T19:02:00.628Z,47.20
2022-10-08T19:04:29.679Z,47.10
2022-10-08T19:06:58.156Z,47.10
2022-10-08T19:09:26.620Z,47.00
2022-10-08T19:11:57.955Z,47.20
2022-10-08T19:14:26.581Z,47.20
2022-10-08T19:16:55.064Z,47.20
2022-10-08T19:19:27.349Z,47.10
2022-10-08T19:21:56.552Z,46.90
2022-10-08T19:24:27.443Z,46.60
2022-10-08T19:26:58.487Z,46.70
2022-10-08T19:29:33.310Z,46.70
2022-10-08T19:32:01.761Z,46.40
2022-10-08T19:34:30.242Z,46.30
2022-10-08T19:36:58.707Z,46.20
2022-10-08T19:39:30.366Z,46.50
2022-10-08T19:42:00.253Z,46.60
2022-10-08T19:44:28.774Z,46.60
2022-10-08T19:46:57.157Z,46.60
2022-10-08T19:49:25.596Z,46.40
2022-10-08T19:51:54.790Z,46.20
2022-10-08T19:54:23.539Z,46.10
2022-10-08T19:56:52.156Z,46.20
2022-10-08T19:59:22.196Z,46.50
2022-10-08T20:01:50.707Z,46.50
2022-10-08T20:04:21.607Z,46.50
2022-10-08T20:06:50.084Z,46.30
2022-10-08T20:09:18.675Z,46.40
2022-10-08T20:11:47.629Z,46.40
2022-10-08T20:14:17.515Z,46.30
2022-10-08T20:16:47.453Z,46.30
2022-10-08T20:19:19.272Z,46.20
2022-10-08T20:21:49.340Z,46.50
2022-10-08T20:24:19.668Z,46.60
2022-10-08T20:26:49.088Z,46.70
2022-10-08T20:29:20.080Z,46.70
2022-10-08T20:31:54.791Z,46.90
2022-10-08T20:34:26.992Z,46.90
2022-10-08T20:36:57.961Z,46.70
2022-10-08T20:39:26.398Z,46.70
2022-10-08T20:41:55.109Z,46.70
2022-10-08T20:44:24.039Z,46.50
2022-10-08T20:46:54.225Z,46.40
2022-10-08T20:49:22.698Z,46.20
2022-10-08T20:51:51.076Z,46.00
2022-10-08T20:54:19.799Z,45.80
2022-10-08T20:56:48.210Z,45.50
2022-10-08T20:59:19.613Z,45.30
2022-10-08T21:01:50.782Z,45.20
2022-10-08T21:04:21.510Z,45.10
2022-10-08T21:06:51.859Z,45.20
2022-10-08T21:09:22.774Z,45.00
2022-10-08T21:11:51.188Z,45.00
2022-10-08T21:14:22.619Z,45.00
2022-10-08T21:16:51.352Z,45.40
2022-10-08T21:19:23.302Z,45.60
2022-10-08T21:21:52.287Z,45.30
2022-10-08T21:24:20.982Z,45.30
2022-10-08T21:26:49.669Z,45.60
2022-10-08T21:29:18.261Z,45.80
2022-10-08T21:31:46.647Z,45.90
2022-10-08T21:34:15.250Z,45.90
2022-10-08T21:36:45.008Z,45.90
2022-10-08T21:39:17.817Z,45.80
2022-10-08T21:41:47.117Z,45.80
2022-10-08T21:44:16.041Z,45.80
2022-10-08T21:46:45.097Z,45.80
2022-10-08T21:49:15.944Z,45.50
2022-10-08T21:51:46.040Z,45.40
2022-10-08T21:54:15.146Z,45.20
2022-10-08T21:56:44.890Z,45.00
2022-10-08T21:59:16.462Z,44.90
2022-10-08T22:01:50.119Z,44.80
2022-10-08T22:04:21.282Z,44.70
2022-10-08T22:06:53.444Z,44.50
2022-10-08T22:09:23.973Z,44.40
2022-10-08T22:11:55.018Z,44.50
2022-10-08T22:14:24.047Z,44.40
2022-10-08T22:16:52.751Z,44.50
2022-10-08T22:19:21.778Z,44.40
2022-10-08T22:21:51.615Z,44.50
2022-10-08T22:24:20.135Z,45.20
2022-10-08T22:26:49.537Z,44.60
2022-10-08T22:29:18.167Z,44.80
2022-10-08T22:31:46.995Z,45.00
2022-10-08T22:34:15.710Z,45.00
2022-10-08T22:36:45.485Z,45.20
2022-10-08T22:39:15.414Z,45.40
2022-10-08T22:41:43.891Z,45.40
2022-10-08T22:44:12.336Z,45.50
2022-10-08T22:46:41.207Z,45.40
2022-10-08T22:49:12.310Z,45.40
2022-10-08T22:51:41.408Z,45.30
2022-10-08T22:54:11.117Z,45.20
2022-10-08T22:56:40.985Z,45.10
2022-10-08T22:59:09.675Z,44.90
2022-10-08T23:01:38.213Z,44.70
2022-10-08T23:04:06.820Z,44.60
2022-10-08T23:06:36.203Z,44.70
2022-10-08T23:09:08.995Z,44.80
2022-10-08T23:11:37.413Z,44.80
2022-10-08T23:14:07.607Z,44.70
2022-10-08T23:16:36.369Z,44.50
2022-10-08T23:19:07.309Z,44.40
2022-10-08T23:21:37.110Z,44.20
2022-10-08T23:24:06.572Z,44.20
2022-10-08T23:26:35.953Z,44.00
2022-10-08T23:29:06.585Z,44.10
2022-10-08T23:31:37.858Z,43.80
2022-10-08T23:34:08.624Z,43.80
2022-10-08T23:36:39.987Z,44.00
2022-10-08T23:39:11.624Z,43.90
2022-10-08T23:41:40.455Z,43.90
2022-10-08T23:44:12.116Z,44.00
2022-10-08T23:46:40.896Z,43.80
2022-10-08T23:49:09.617Z,43.90
2022-10-08T23:51:38.033Z,43.50
2022-10-08T23:54:07.435Z,43.50
2022-10-08T23:56:35.982Z,43.40
2022-10-08T23:59:04.705Z,43.40
